Terminal Aerodrome Forecast
Issued by NWS Rapid City, SD

Home | Current Version | Previous Version | Text Only | Print | Product List | Glossary Off
Versions: 1 2 3 4 5 6 7 8 9 10 11 12 13 14 15 16 17 18 19 20 21 22 23 24 25 26

000
FTUS43 KUNR 232320
TAFRAP
TAF
KRAP 232320Z 2400/2424 11010KT P6SM OVC020
     FM240300 06010KT P6SM BKN010 OVC020
      TEMPO 2403/2407 3SM -SHRA OVC007
     FM240700 03010KT 2SM RA BR OVC005
     FM241700 02010KT 5SM -RA OVC008=

USA.gov is the U.S. government's official web portal to all federal, state and local government web resources and services.